createdAt,value
2018-05-15T00:03:20.925Z,12.60
2018-05-15T00:08:25.059Z,12.20
2018-05-15T00:13:26.508Z,12.20
2018-05-15T00:18:27.780Z,11.90
2018-05-15T00:23:29.813Z,11.70
2018-05-15T00:28:31.109Z,11.60
2018-05-15T00:33:33.220Z,11.70
2018-05-15T00:38:34.474Z,11.60
2018-05-15T00:43:38.596Z,11.60
2018-05-15T00:48:42.010Z,11.60
2018-05-15T00:53:43.255Z,11.60
2018-05-15T00:58:44.479Z,11.50
2018-05-15T01:03:49.424Z,11.20
2018-05-15T01:08:50.670Z,10.80
2018-05-15T01:13:52.871Z,10.40
2018-05-15T01:18:54.253Z,10.00
2018-05-15T01:23:55.547Z,9.80
2018-05-15T01:28:57.857Z,9.70
2018-05-15T01:33:59.155Z,9.60
2018-05-15T01:39:00.560Z,9.60
2018-05-15T01:44:01.853Z,9.50
2018-05-15T01:49:03.204Z,8.90
2018-05-15T01:54:04.595Z,9.40
2018-05-15T01:59:05.898Z,9.00
2018-05-15T02:04:08.277Z,9.20
2018-05-15T02:09:10.348Z,9.10
2018-05-15T02:14:11.588Z,9.10
2018-05-15T02:19:13.859Z,9.20
2018-05-15T02:24:15.091Z,9.20
2018-05-15T02:29:17.485Z,9.20
2018-05-15T02:34:18.719Z,9.10
2018-05-15T02:39:20.090Z,9.10
2018-05-15T02:44:21.412Z,8.90
2018-05-15T02:49:24.709Z,8.80
2018-05-15T02:54:25.993Z,8.80
2018-05-15T02:59:28.077Z,8.90
2018-05-15T03:04:30.128Z,9.00
2018-05-15T03:09:31.484Z,8.90
2018-05-15T03:14:33.770Z,9.00
2018-05-15T03:19:35.045Z,9.10
2018-05-15T03:24:36.420Z,9.20
2018-05-15T03:29:37.707Z,9.30
2018-05-15T03:34:39.967Z,9.40
2018-05-15T03:39:41.332Z,9.60
2018-05-15T03:44:42.650Z,9.70
2018-05-15T03:49:43.904Z,9.90
2018-05-15T03:54:45.214Z,9.90
2018-05-15T03:59:46.587Z,9.80
2018-05-15T04:05:00.043Z,9.70
2018-05-15T04:10:02.158Z,9.60
2018-05-15T04:15:08.750Z,9.50
2018-05-15T04:20:10.023Z,9.60
2018-05-15T04:25:14.424Z,9.70
2018-05-15T04:30:16.707Z,9.90
2018-05-15T04:35:18.855Z,10.40
2018-05-15T04:40:25.651Z,10.30
2018-05-15T04:45:31.679Z,11.40
2018-05-15T04:50:32.948Z,11.40
2018-05-15T04:55:34.202Z,12.10
2018-05-15T05:00:35.455Z,13.20
2018-05-15T05:05:36.705Z,15.00
2018-05-15T05:10:37.981Z,15.90
2018-05-15T05:15:39.226Z,16.60
2018-05-15T05:20:40.493Z,17.00
2018-05-15T05:25:41.758Z,17.20
2018-05-15T05:30:43.860Z,16.40
2018-05-15T05:35:45.302Z,16.30
2018-05-15T05:40:46.703Z,16.60
2018-05-15T05:45:48.027Z,15.80
2018-05-15T05:50:49.283Z,16.00
2018-05-15T05:55:52.462Z,15.80
2018-05-15T06:00:53.821Z,15.80
2018-05-15T06:05:55.127Z,16.30
2018-05-15T06:10:58.167Z,16.50
2018-05-15T06:16:00.222Z,16.60
2018-05-15T06:21:01.590Z,16.60
2018-05-15T06:26:02.836Z,16.50
2018-05-15T06:31:04.138Z,16.30
2018-05-15T06:36:06.207Z,18.20
2018-05-15T06:41:07.641Z,18.20
2018-05-15T06:46:08.893Z,17.60
2018-05-15T06:51:10.174Z,17.30
2018-05-15T06:56:11.615Z,17.20
2018-05-15T07:01:13.705Z,17.40
2018-05-15T07:06:15.008Z,17.40
2018-05-15T07:11:17.102Z,16.60
2018-05-15T07:16:19.167Z,16.20
2018-05-15T07:21:20.531Z,16.20
2018-05-15T07:26:22.543Z,16.10
2018-05-15T07:31:23.815Z,16.10
2018-05-15T07:36:25.052Z,15.90
2018-05-15T07:41:26.371Z,16.30
2018-05-15T07:46:27.776Z,16.60
2018-05-15T07:51:29.113Z,16.70
2018-05-15T07:56:30.485Z,17.10
2018-05-15T08:01:32.545Z,17.90
2018-05-15T08:06:33.946Z,17.90
2018-05-15T08:11:35.230Z,18.30
2018-05-15T08:16:36.656Z,18.70
2018-05-15T08:21:38.694Z,18.90
2018-05-15T08:26:39.904Z,18.90
2018-05-15T08:31:42.023Z,19.60
2018-05-15T08:36:43.313Z,19.60
2018-05-15T08:41:46.081Z,20.40
2018-05-15T08:46:47.350Z,20.30
2018-05-15T08:51:48.613Z,19.90
2018-05-15T08:56:49.913Z,20.10
2018-05-15T09:01:51.997Z,20.40
2018-05-15T09:06:54.020Z,20.10
2018-05-15T09:11:55.310Z,20.00
2018-05-15T09:16:56.705Z,20.60
2018-05-15T09:21:58.788Z,20.40
2018-05-15T09:27:00.732Z,20.80
2018-05-15T09:32:02.142Z,20.70
2018-05-15T09:37:03.425Z,20.90
2018-05-15T09:42:04.751Z,20.80
2018-05-15T09:47:06.890Z,21.30
2018-05-15T09:52:08.128Z,21.30
2018-05-15T09:57:10.623Z,22.00
2018-05-15T10:02:11.925Z,22.50
2018-05-15T10:07:14.243Z,22.10
2018-05-15T10:12:15.572Z,22.10
2018-05-15T10:17:16.907Z,22.60
2018-05-15T10:22:18.282Z,22.40
2018-05-15T10:27:19.603Z,22.40
2018-05-15T10:32:20.949Z,22.70
2018-05-15T10:37:22.265Z,22.60
2018-05-15T10:42:23.519Z,22.50
2018-05-15T10:47:24.803Z,22.30
2018-05-15T10:52:26.125Z,22.00
2018-05-15T10:57:27.380Z,22.50
2018-05-15T11:02:28.730Z,23.10
2018-05-15T11:07:30.090Z,23.60
2018-05-15T11:12:31.396Z,23.90
2018-05-15T11:17:32.824Z,23.10
2018-05-15T11:27:56.541Z,22.50
2018-05-15T11:32:57.892Z,22.50
2018-05-15T11:37:59.977Z,22.50
2018-05-15T11:43:01.322Z,22.40
2018-05-15T11:48:03.916Z,22.70
2018-05-15T11:53:05.674Z,22.70
2018-05-15T11:58:07.001Z,22.90
2018-05-15T12:03:08.415Z,22.70
2018-05-15T12:08:10.555Z,22.60
2018-05-15T12:13:11.836Z,22.50
2018-05-15T12:18:13.246Z,22.90
2018-05-15T12:23:14.675Z,24.20
2018-05-15T12:28:16.761Z,22.50
2018-05-15T12:33:18.863Z,22.50
2018-05-15T12:38:20.875Z,22.50
2018-05-15T12:43:22.168Z,22.40
2018-05-15T12:48:23.576Z,22.20
2018-05-15T12:53:24.886Z,22.50
2018-05-15T12:58:26.248Z,22.40
2018-05-15T13:03:27.701Z,22.30
2018-05-15T13:08:28.931Z,22.70
2018-05-15T13:13:30.263Z,22.80
2018-05-15T13:18:32.366Z,22.90
2018-05-15T13:23:34.417Z,23.50
2018-05-15T13:28:35.794Z,23.50
2018-05-15T13:33:37.828Z,23.00
2018-05-15T13:38:39.113Z,23.00
2018-05-15T13:43:40.483Z,23.60
2018-05-15T13:48:41.864Z,24.70
2018-05-15T13:53:43.160Z,24.70
2018-05-15T13:58:44.487Z,23.70
2018-05-15T14:03:46.580Z,22.20
2018-05-15T14:08:47.893Z,22.20
2018-05-15T14:13:49.180Z,25.10
2018-05-15T14:18:51.268Z,24.10
2018-05-15T14:23:53.374Z,25.10
2018-05-15T14:28:54.696Z,25.10
2018-05-15T14:33:56.793Z,24.30
2018-05-15T14:38:58.118Z,24.30
2018-05-15T14:44:00.441Z,25.80
2018-05-15T14:49:02.466Z,25.50
2018-05-15T14:54:05.661Z,25.40
2018-05-15T14:59:06.956Z,24.30
2018-05-15T15:04:08.254Z,25.00
2018-05-15T15:09:09.630Z,27.10
2018-05-15T15:14:10.985Z,27.80
2018-05-15T15:19:12.325Z,26.40
2018-05-15T15:24:13.592Z,26.40
2018-05-15T15:29:15.809Z,24.50
2018-05-15T15:34:17.224Z,24.50
2018-05-15T15:39:18.667Z,25.00
2018-05-15T15:44:20.052Z,27.50
2018-05-15T15:49:21.551Z,26.90
2018-05-15T15:54:22.940Z,25.60
2018-05-15T15:59:24.311Z,25.60
2018-05-15T16:04:26.399Z,26.50
2018-05-15T16:09:27.760Z,26.50
2018-05-15T16:14:29.846Z,25.20
2018-05-15T16:19:31.252Z,25.10
2018-05-15T16:24:33.320Z,23.40
2018-05-15T16:29:34.648Z,23.40
2018-05-15T16:34:35.963Z,22.00
2018-05-15T16:39:38.125Z,23.40
2018-05-15T16:44:40.198Z,23.50
2018-05-15T16:49:41.584Z,23.50
2018-05-15T16:54:43.672Z,23.40
2018-05-15T16:59:45.759Z,23.60
2018-05-15T17:04:47.071Z,23.50
2018-05-15T17:09:48.331Z,23.60
2018-05-15T17:14:49.636Z,23.30
2018-05-15T17:19:51.737Z,22.90
2018-05-15T17:24:53.120Z,22.90
2018-05-15T17:29:54.446Z,22.60
2018-05-15T17:34:56.535Z,21.30
2018-05-15T17:39:57.891Z,21.30
2018-05-15T17:44:59.944Z,20.50
2018-05-15T17:50:01.267Z,20.50
2018-05-15T17:55:02.590Z,20.10
2018-05-15T18:00:04.715Z,19.80
2018-05-15T18:05:06.015Z,19.80
2018-05-15T18:10:08.101Z,19.40
2018-05-15T18:15:10.286Z,19.10
2018-05-15T18:20:11.515Z,19.10
2018-05-15T18:25:12.966Z,18.80
2018-05-15T18:30:14.303Z,19.20
2018-05-15T18:35:15.575Z,18.30
2018-05-15T18:40:17.008Z,18.20
2018-05-15T18:45:18.409Z,17.90
2018-05-15T18:50:19.672Z,17.70
2018-05-15T18:55:20.956Z,17.50
2018-05-15T19:00:22.225Z,17.30
2018-05-15T19:05:23.526Z,17.20
2018-05-15T19:10:25.524Z,16.30
2018-05-15T19:15:26.829Z,16.20
2018-05-15T19:20:28.159Z,15.90
2018-05-15T19:25:29.462Z,15.70
2018-05-15T19:30:30.830Z,15.60
2018-05-15T19:35:39.003Z,15.00
2018-05-15T19:40:41.392Z,15.00
2018-05-15T19:45:42.648Z,14.60
2018-05-15T19:50:43.950Z,14.40
2018-05-15T19:55:45.331Z,14.10
2018-05-15T20:00:46.689Z,13.90
2018-05-15T20:05:48.010Z,13.20
2018-05-15T20:10:49.284Z,13.70
2018-05-15T20:15:51.631Z,13.50
2018-05-15T20:20:53.681Z,13.10
2018-05-15T20:25:55.693Z,12.90
2018-05-15T20:30:57.016Z,12.90
2018-05-15T20:35:58.391Z,12.80
2018-05-15T20:40:59.721Z,12.70
2018-05-15T20:46:01.034Z,12.40
2018-05-15T20:51:02.355Z,12.20
2018-05-15T20:56:03.751Z,12.10
2018-05-15T21:01:05.937Z,12.10
2018-05-15T21:06:08.034Z,12.20
2018-05-15T21:11:09.389Z,12.10
2018-05-15T21:16:10.875Z,12.20
2018-05-15T21:21:12.175Z,12.20
2018-05-15T21:26:14.256Z,12.50
2018-05-15T21:31:15.640Z,12.50
2018-05-15T21:36:16.968Z,12.60
2018-05-15T21:41:18.338Z,12.60
2018-05-15T21:46:19.630Z,12.70
2018-05-15T21:51:21.796Z,13.10
2018-05-15T21:56:23.171Z,13.10
2018-05-15T22:01:25.304Z,13.20
2018-05-15T22:06:27.320Z,13.20
2018-05-15T22:11:30.043Z,13.00
2018-05-15T22:16:44.278Z,13.30
2018-05-15T22:21:58.834Z,13.30
2018-05-15T22:27:00.240Z,13.40
2018-05-15T22:32:02.709Z,13.40
2018-05-15T22:37:04.941Z,13.40
2018-05-15T22:42:07.101Z,13.50
2018-05-15T22:47:09.261Z,13.50
2018-05-15T22:52:10.563Z,13.50
2018-05-15T22:57:11.812Z,13.40
2018-05-15T23:02:13.472Z,13.40
2018-05-15T23:07:15.542Z,13.30
2018-05-15T23:12:17.589Z,13.10
2018-05-15T23:17:18.817Z,13.10
2018-05-15T23:22:32.460Z,13.20
2018-05-15T23:27:33.797Z,13.20
2018-05-15T23:32:35.877Z,13.20
2018-05-15T23:37:38.000Z,13.30
2018-05-15T23:42:39.291Z,13.20
2018-05-15T23:47:40.659Z,13.40
2018-05-15T23:52:41.916Z,13.20
2018-05-15T23:57:43.266Z,13.10
